PWSweather.com
Personal Weather Stations
Station Observations
KMNGREYC2
Grey Cloud Island, Grey Cloud Island, MN 55071

Grey Cloud IslandGrey Cloud Island, MN 55071

Lat: 44.799333, Lon: -92.987851

Elevation: 700

Station Type: Davis VP2

www.jagielski.com/weather/conditions.htm

High Low Average
Temperature 83.4°F28.6°C 56.0°F13.3°C 69.5°F20.8°C
Dew Point 65.1°F18.4°C 46.1°F7.8°C 56.3°F13.5°C
Winds 5.0 mph 8.0 kmh Calm Calm 1.0 mph WSW1.6 kmh WSW
Wind Gusts 16.0 mph25.7 kmh -- 7.0 mph11.3 kmh
Humidity 97% 39% 66%
Pressure 29.74 in1007.1 mb 29.54 in1000.3 mb -
Precipitation 0.00 in0.0 mm - -
Hour Temp Dew Point Humidity Winds Wind Gusts Pressure Precip Precip Rate Daily Precip Total
12:00 AM 56.7°F13.7°C 50.3°F10.2°C 79% Calm Calm 1.0 mph1.6 kmh 29.66 in1004.4 mb 0.00 in0.0 mm 0.00 in0.0 mm 0.00 in0.0 mm
12:15 AM 56.5°F13.6°C 50.1°F10.1°C 79% Calm Calm -- 29.66 in1004.4 mb 0.00 in0.0 mm 0.00 in0.0 mm 0.00 in0.0 mm
12:30 AM 56.2°F13.4°C 50.1°F10.1°C 80% Calm Calm -- 29.65 in1004.1 mb 0.00 in0.0 mm 0.00 in0.0 mm 0.00 in0.0 mm
12:45 AM 56.0°F13.3°C 50.3°F10.2°C 81% Calm Calm -- 29.64 in1003.7 mb 0.00 in0.0 mm 0.00 in0.0 mm 0.00 in0.0 mm
01:00 AM 56.0°F13.3°C 51.2°F10.7°C 84% 1.0 mph S1.6 kmh S 3.0 mph4.8 kmh 29.64 in1003.7 mb 0.00 in0.0 mm 0.00 in0.0 mm 0.00 in0.0 mm
01:15 AM 56.2°F13.4°C 51.8°F11.0°C 85% 4.0 mph S6.4 kmh S 5.0 mph8.0 kmh 29.63 in1003.4 mb 0.00 in0.0 mm 0.00 in0.0 mm 0.00 in0.0 mm
01:30 AM 57.3°F14.1°C 53.5°F11.9°C 87% 3.0 mph SSW4.8 kmh SSW 6.0 mph9.7 kmh 29.62 in1003.0 mb 0.00 in0.0 mm 0.00 in0.0 mm 0.00 in0.0 mm
01:45 AM 59.6°F15.3°C 54.1°F12.3°C 82% 1.0 mph S1.6 kmh S 9.0 mph14.5 kmh 29.61 in1002.7 mb 0.00 in0.0 mm 0.00 in0.0 mm 0.00 in0.0 mm
02:00 AM 62.1°F16.7°C 54.5°F12.5°C 76% Calm Calm 9.0 mph14.5 kmh 29.61 in1002.7 mb 0.00 in0.0 mm 0.00 in0.0 mm 0.00 in0.0 mm
02:15 AM 63.8°F17.7°C 55.0°F12.8°C 73% Calm Calm 6.0 mph9.7 kmh 29.60 in1002.4 mb 0.00 in0.0 mm 0.00 in0.0 mm 0.00 in0.0 mm
02:30 AM 64.6°F18.1°C 55.0°F12.8°C 71% 5.0 mph S8.0 kmh S 7.0 mph11.3 kmh 29.61 in1002.7 mb 0.00 in0.0 mm 0.00 in0.0 mm 0.00 in0.0 mm
02:45 AM 65.3°F18.5°C 55.3°F12.9°C 70% 4.0 mph S6.4 kmh S 6.0 mph9.7 kmh 29.59 in1002.0 mb 0.00 in0.0 mm 0.00 in0.0 mm 0.00 in0.0 mm
03:00 AM 65.6°F18.7°C 55.2°F12.9°C 69% 4.0 mph S6.4 kmh S 12.0 mph19.3 kmh 29.58 in1001.7 mb 0.00 in0.0 mm 0.00 in0.0 mm 0.00 in0.0 mm
03:15 AM 66.0°F18.9°C 55.6°F13.1°C 69% 2.0 mph SSW3.2 kmh SSW 9.0 mph14.5 kmh 29.57 in1001.4 mb 0.00 in0.0 mm 0.00 in0.0 mm 0.00 in0.0 mm
03:30 AM 66.2°F19.0°C 55.7°F13.2°C 69% 4.0 mph SW6.4 kmh SW 11.0 mph17.7 kmh 29.56 in1001.0 mb 0.00 in0.0 mm 0.00 in0.0 mm 0.00 in0.0 mm
03:45 AM 66.5°F19.2°C 56.0°F13.3°C 69% 2.0 mph SSW3.2 kmh SSW 7.0 mph11.3 kmh 29.55 in1000.7 mb 0.00 in0.0 mm 0.00 in0.0 mm 0.00 in0.0 mm
04:00 AM 66.8°F19.3°C 56.7°F13.7°C 70% Calm Calm 7.0 mph11.3 kmh 29.54 in1000.3 mb 0.00 in0.0 mm 0.00 in0.0 mm 0.00 in0.0 mm
04:15 AM 66.5°F19.2°C 59.8°F15.4°C 79% Calm Calm 6.0 mph9.7 kmh 29.57 in1001.4 mb 0.01 in0.3 mm 0.04 in1.0 mm 0.01 in0.3 mm
04:30 AM 64.5°F18.1°C 59.6°F15.3°C 84% 5.0 mph W8.0 kmh W 11.0 mph17.7 kmh 29.59 in1002.0 mb 0.01 in0.3 mm 0.00 in0.0 mm 0.01 in0.3 mm
04:45 AM 63.7°F17.6°C 60.1°F15.6°C 88% 2.0 mph WSW3.2 kmh WSW 16.0 mph25.7 kmh 29.61 in1002.7 mb 0.15 in3.8 mm 0.56 in14.2 mm 0.15 in3.8 mm
05:00 AM 63.3°F17.4°C 60.3°F15.7°C 90% Calm Calm 16.0 mph25.7 kmh 29.59 in1002.0 mb 0.17 in4.3 mm 0.03 in0.8 mm 0.17 in4.3 mm
05:15 AM 63.3°F17.4°C 60.9°F16.1°C 92% Calm Calm 10.0 mph16.1 kmh 29.57 in1001.4 mb 0.22 in5.6 mm 0.20 in5.1 mm 0.22 in5.6 mm
05:30 AM 63.3°F17.4°C 61.3°F16.3°C 93% 2.0 mph WSW3.2 kmh WSW 10.0 mph16.1 kmh 29.58 in1001.7 mb 0.23 in5.8 mm 0.04 in1.0 mm 0.23 in5.8 mm
05:45 AM 63.2°F17.3°C 61.2°F16.2°C 93% Calm Calm 2.0 mph3.2 kmh 29.57 in1001.4 mb 0.21 in5.3 mm 0.00 in0.0 mm 0.23 in5.8 mm
06:00 AM 63.2°F17.3°C 61.5°F16.4°C 94% 1.0 mph WSW1.6 kmh WSW 3.0 mph4.8 kmh 29.57 in1001.4 mb 0.21 in5.3 mm 0.00 in0.0 mm 0.23 in5.8 mm
06:15 AM 63.2°F17.3°C 61.5°F16.4°C 94% Calm Calm 1.0 mph1.6 kmh 29.57 in1001.4 mb 0.04 in1.0 mm 0.00 in0.0 mm 0.23 in5.8 mm
06:30 AM 62.9°F17.2°C 61.2°F16.2°C 94% Calm Calm 1.0 mph1.6 kmh 29.57 in1001.4 mb 0.04 in1.0 mm 0.00 in0.0 mm 0.23 in5.8 mm
06:45 AM 62.5°F16.9°C 60.8°F16.0°C 94% Calm Calm 1.0 mph1.6 kmh 29.57 in1001.4 mb 0.00 in0.0 mm 0.00 in0.0 mm 0.23 in5.8 mm
07:00 AM 62.2°F16.8°C 60.5°F15.8°C 94% Calm Calm 2.0 mph3.2 kmh 29.57 in1001.4 mb 0.00 in0.0 mm 0.00 in0.0 mm 0.23 in5.8 mm
07:15 AM 61.9°F16.6°C 60.2°F15.7°C 94% Calm Calm -- 29.56 in1001.0 mb 0.00 in0.0 mm 0.00 in0.0 mm 0.23 in5.8 mm
07:30 AM 61.8°F16.6°C 60.4°F15.8°C 95% Calm Calm 3.0 mph4.8 kmh 29.56 in1001.0 mb 0.00 in0.0 mm 0.00 in0.0 mm 0.23 in5.8 mm
07:45 AM 62.1°F16.7°C 60.7°F15.9°C 95% Calm Calm 3.0 mph4.8 kmh 29.56 in1001.0 mb 0.00 in0.0 mm 0.00 in0.0 mm 0.23 in5.8 mm
08:00 AM 62.6°F17.0°C 61.5°F16.4°C 96% Calm Calm 3.0 mph4.8 kmh 29.56 in1001.0 mb 0.00 in0.0 mm 0.00 in0.0 mm 0.23 in5.8 mm
08:15 AM 63.1°F17.3°C 61.9°F16.6°C 96% Calm Calm 3.0 mph4.8 kmh 29.56 in1001.0 mb 0.00 in0.0 mm 0.00 in0.0 mm 0.23 in5.8 mm
08:30 AM 63.6°F17.6°C 62.4°F16.9°C 96% Calm Calm 3.0 mph4.8 kmh 29.56 in1001.0 mb 0.00 in0.0 mm 0.00 in0.0 mm 0.23 in5.8 mm
08:45 AM 64.3°F17.9°C 63.4°F17.4°C 97% Calm Calm 3.0 mph4.8 kmh 29.56 in1001.0 mb 0.00 in0.0 mm 0.00 in0.0 mm 0.23 in5.8 mm
09:00 AM 64.8°F18.2°C 63.9°F17.7°C 97% 3.0 mph SW4.8 kmh SW 3.0 mph4.8 kmh 29.56 in1001.0 mb 0.00 in0.0 mm 0.00 in0.0 mm 0.23 in5.8 mm
09:15 AM 65.2°F18.4°C 64.3°F17.9°C 97% 1.0 mph W1.6 kmh W 5.0 mph8.0 kmh 29.57 in1001.4 mb 0.00 in0.0 mm 0.00 in0.0 mm 0.23 in5.8 mm
09:30 AM 65.5°F18.6°C 64.6°F18.1°C 97% Calm Calm 7.0 mph11.3 kmh 29.57 in1001.4 mb 0.00 in0.0 mm 0.00 in0.0 mm 0.23 in5.8 mm
09:45 AM 65.8°F18.8°C 64.6°F18.1°C 96% Calm Calm 7.0 mph11.3 kmh 29.57 in1001.4 mb 0.00 in0.0 mm 0.00 in0.0 mm 0.23 in5.8 mm
10:00 AM 66.9°F19.4°C 65.1°F18.4°C 94% Calm Calm 7.0 mph11.3 kmh 29.57 in1001.4 mb 0.00 in0.0 mm 0.00 in0.0 mm 0.23 in5.8 mm
10:15 AM 68.5°F20.3°C 64.5°F18.1°C 87% 2.0 mph S3.2 kmh S 6.0 mph9.7 kmh 29.57 in1001.4 mb 0.00 in0.0 mm 0.00 in0.0 mm 0.23 in5.8 mm
10:30 AM 70.2°F21.2°C 63.4°F17.4°C 79% Calm Calm 6.0 mph9.7 kmh 29.57 in1001.4 mb 0.00 in0.0 mm 0.00 in0.0 mm 0.23 in5.8 mm
10:45 AM 71.9°F22.2°C 63.6°F17.6°C 75% Calm Calm 2.0 mph3.2 kmh 29.57 in1001.4 mb 0.00 in0.0 mm 0.00 in0.0 mm 0.23 in5.8 mm
11:00 AM 73.3°F22.9°C 62.5°F16.9°C 69% Calm Calm 4.0 mph6.4 kmh 29.57 in1001.4 mb 0.00 in0.0 mm 0.00 in0.0 mm 0.23 in5.8 mm
11:15 AM 74.7°F23.7°C 60.4°F15.8°C 61% 2.0 mph WNW3.2 kmh WNW 6.0 mph9.7 kmh 29.58 in1001.7 mb 0.00 in0.0 mm 0.00 in0.0 mm 0.23 in5.8 mm
11:30 AM 76.2°F24.6°C 59.4°F15.2°C 56% 2.0 mph NW3.2 kmh NW 7.0 mph11.3 kmh 29.57 in1001.4 mb 0.00 in0.0 mm 0.00 in0.0 mm 0.23 in5.8 mm
11:45 AM 77.4°F25.2°C 59.5°F15.3°C 54% Calm Calm 5.0 mph8.0 kmh 29.59 in1002.0 mb 0.00 in0.0 mm 0.00 in0.0 mm 0.23 in5.8 mm
12:00 PM 78.8°F26.0°C 58.1°F14.5°C 49% 4.0 mph NW6.4 kmh NW 5.0 mph8.0 kmh 29.59 in1002.0 mb 0.00 in0.0 mm 0.00 in0.0 mm 0.23 in5.8 mm
12:15 PM 80.0°F26.7°C 57.4°F14.1°C 46% 3.0 mph N4.8 kmh N 7.0 mph11.3 kmh 29.60 in1002.4 mb 0.00 in0.0 mm 0.00 in0.0 mm 0.23 in5.8 mm
12:30 PM 80.7°F27.1°C 57.4°F14.1°C 45% 1.0 mph N1.6 kmh N 8.0 mph12.9 kmh 29.59 in1002.0 mb 0.00 in0.0 mm 0.00 in0.0 mm 0.23 in5.8 mm
12:45 PM 81.5°F27.5°C 56.9°F13.8°C 43% 1.0 mph NW1.6 kmh NW 6.0 mph9.7 kmh 29.59 in1002.0 mb 0.00 in0.0 mm 0.00 in0.0 mm 0.23 in5.8 mm
01:00 PM 81.8°F27.7°C 57.8°F14.3°C 44% 1.0 mph NW1.6 kmh NW 7.0 mph11.3 kmh 29.59 in1002.0 mb 0.00 in0.0 mm 0.00 in0.0 mm 0.23 in5.8 mm
01:15 PM 82.2°F27.9°C 57.5°F14.2°C 43% 1.0 mph W1.6 kmh W 6.0 mph9.7 kmh 29.58 in1001.7 mb 0.00 in0.0 mm 0.00 in0.0 mm 0.23 in5.8 mm
01:30 PM 82.6°F28.1°C 55.2°F12.9°C 39% 1.0 mph WNW1.6 kmh WNW 7.0 mph11.3 kmh 29.58 in1001.7 mb 0.00 in0.0 mm 0.00 in0.0 mm 0.23 in5.8 mm
01:45 PM 82.9°F28.3°C 55.4°F13.0°C 39% 3.0 mph WSW4.8 kmh WSW 10.0 mph16.1 kmh 29.58 in1001.7 mb 0.00 in0.0 mm 0.00 in0.0 mm 0.23 in5.8 mm
02:00 PM 83.4°F28.6°C 57.3°F14.1°C 41% Calm Calm 12.0 mph19.3 kmh 29.58 in1001.7 mb 0.00 in0.0 mm 0.00 in0.0 mm 0.23 in5.8 mm
02:15 PM 83.3°F28.5°C 56.5°F13.6°C 40% 1.0 mph WSW1.6 kmh WSW 5.0 mph8.0 kmh 29.58 in1001.7 mb 0.00 in0.0 mm 0.00 in0.0 mm 0.23 in5.8 mm
02:30 PM 83.1°F28.4°C 57.0°F13.9°C 41% 1.0 mph NNW1.6 kmh NNW 6.0 mph9.7 kmh 29.58 in1001.7 mb 0.00 in0.0 mm 0.00 in0.0 mm 0.23 in5.8 mm
02:45 PM 83.3°F28.5°C 57.2°F14.0°C 41% 1.0 mph N1.6 kmh N 7.0 mph11.3 kmh 29.58 in1001.7 mb 0.00 in0.0 mm 0.00 in0.0 mm 0.23 in5.8 mm
03:00 PM 83.4°F28.6°C 57.3°F14.1°C 41% Calm Calm 8.0 mph12.9 kmh 29.58 in1001.7 mb 0.00 in0.0 mm 0.00 in0.0 mm 0.23 in5.8 mm
03:15 PM 83.0°F28.3°C 56.9°F13.8°C 41% 2.0 mph NE3.2 kmh NE 5.0 mph8.0 kmh 29.59 in1002.0 mb 0.00 in0.0 mm 0.00 in0.0 mm 0.23 in5.8 mm
03:30 PM 82.2°F27.9°C 56.9°F13.8°C 42% 1.0 mph NNE1.6 kmh NNE 6.0 mph9.7 kmh 29.58 in1001.7 mb 0.00 in0.0 mm 0.00 in0.0 mm 0.23 in5.8 mm
03:45 PM 82.0°F27.8°C 56.7°F13.7°C 42% 1.0 mph NW1.6 kmh NW 8.0 mph12.9 kmh 29.59 in1002.0 mb 0.00 in0.0 mm 0.00 in0.0 mm 0.23 in5.8 mm
04:00 PM 81.5°F27.5°C 56.9°F13.8°C 43% 4.0 mph NW6.4 kmh NW 8.0 mph12.9 kmh 29.59 in1002.0 mb 0.00 in0.0 mm 0.00 in0.0 mm 0.23 in5.8 mm
04:15 PM 81.0°F27.2°C 57.1°F13.9°C 44% 2.0 mph N3.2 kmh N 9.0 mph14.5 kmh 29.60 in1002.4 mb 0.00 in0.0 mm 0.00 in0.0 mm 0.23 in5.8 mm
04:30 PM 80.6°F27.0°C 56.7°F13.7°C 44% Calm Calm 9.0 mph14.5 kmh 29.60 in1002.4 mb 0.00 in0.0 mm 0.00 in0.0 mm 0.23 in5.8 mm
04:45 PM 80.2°F26.8°C 56.3°F13.5°C 44% 3.0 mph NNW4.8 kmh NNW 8.0 mph12.9 kmh 29.60 in1002.4 mb 0.00 in0.0 mm 0.00 in0.0 mm 0.23 in5.8 mm
05:00 PM 79.7°F26.5°C 56.5°F13.6°C 45% 1.0 mph NNW1.6 kmh NNW 8.0 mph12.9 kmh 29.60 in1002.4 mb 0.00 in0.0 mm 0.00 in0.0 mm 0.23 in5.8 mm
05:15 PM 78.9°F26.1°C 55.8°F13.2°C 45% 2.0 mph NW3.2 kmh NW 9.0 mph14.5 kmh 29.60 in1002.4 mb 0.00 in0.0 mm 0.00 in0.0 mm 0.23 in5.8 mm
05:30 PM 78.1°F25.6°C 56.8°F13.8°C 48% 4.0 mph N6.4 kmh N 12.0 mph19.3 kmh 29.61 in1002.7 mb 0.00 in0.0 mm 0.00 in0.0 mm 0.23 in5.8 mm
05:45 PM 77.4°F25.2°C 55.6°F13.1°C 47% Calm Calm 9.0 mph14.5 kmh 29.62 in1003.0 mb 0.00 in0.0 mm 0.00 in0.0 mm 0.23 in5.8 mm
06:00 PM 76.2°F24.6°C 55.1°F12.8°C 48% 2.0 mph NNW3.2 kmh NNW 9.0 mph14.5 kmh 29.62 in1003.0 mb 0.00 in0.0 mm 0.00 in0.0 mm 0.23 in5.8 mm
06:15 PM 74.9°F23.8°C 55.0°F12.8°C 50% Calm Calm 9.0 mph14.5 kmh 29.63 in1003.4 mb 0.00 in0.0 mm 0.00 in0.0 mm 0.23 in5.8 mm
06:30 PM 74.2°F23.4°C 54.4°F12.4°C 50% 1.0 mph NW1.6 kmh NW 11.0 mph17.7 kmh 29.63 in1003.4 mb 0.00 in0.0 mm 0.00 in0.0 mm 0.23 in5.8 mm
06:45 PM 73.3°F22.9°C 54.1°F12.3°C 51% 2.0 mph NW3.2 kmh NW 8.0 mph12.9 kmh 29.65 in1004.1 mb 0.00 in0.0 mm 0.00 in0.0 mm 0.23 in5.8 mm
07:00 PM 72.3°F22.4°C 53.2°F11.8°C 51% Calm Calm 8.0 mph12.9 kmh 29.65 in1004.1 mb 0.00 in0.0 mm 0.00 in0.0 mm 0.23 in5.8 mm
07:15 PM 71.6°F22.0°C 53.1°F11.7°C 52% 1.0 mph N1.6 kmh N 7.0 mph11.3 kmh 29.65 in1004.1 mb 0.00 in0.0 mm 0.00 in0.0 mm 0.23 in5.8 mm
07:30 PM 71.1°F21.7°C 52.6°F11.4°C 52% Calm Calm 9.0 mph14.5 kmh 29.65 in1004.1 mb 0.00 in0.0 mm 0.00 in0.0 mm 0.23 in5.8 mm
07:45 PM 70.7°F21.5°C 53.3°F11.8°C 54% 1.0 mph NNW1.6 kmh NNW 5.0 mph8.0 kmh 29.66 in1004.4 mb 0.00 in0.0 mm 0.00 in0.0 mm 0.23 in5.8 mm
08:00 PM 70.1°F21.2°C 52.7°F11.5°C 54% 2.0 mph NW3.2 kmh NW 9.0 mph14.5 kmh 29.67 in1004.7 mb 0.00 in0.0 mm 0.00 in0.0 mm 0.23 in5.8 mm
08:15 PM 69.5°F20.8°C 53.1°F11.7°C 56% 2.0 mph N3.2 kmh N 5.0 mph8.0 kmh 29.68 in1005.1 mb 0.00 in0.0 mm 0.00 in0.0 mm 0.23 in5.8 mm
08:30 PM 68.9°F20.5°C 53.1°F11.7°C 57% Calm Calm 5.0 mph8.0 kmh 29.68 in1005.1 mb 0.00 in0.0 mm 0.00 in0.0 mm 0.23 in5.8 mm
08:45 PM 68.2°F20.1°C 52.9°F11.6°C 58% 1.0 mph W1.6 kmh W 8.0 mph12.9 kmh 29.68 in1005.1 mb 0.00 in0.0 mm 0.00 in0.0 mm 0.23 in5.8 mm
09:00 PM 67.3°F19.6°C 52.0°F11.1°C 58% 2.0 mph NNW3.2 kmh NNW 8.0 mph12.9 kmh 29.68 in1005.1 mb 0.00 in0.0 mm 0.00 in0.0 mm 0.23 in5.8 mm
09:15 PM 66.5°F19.2°C 51.3°F10.7°C 58% 3.0 mph NNE4.8 kmh NNE 6.0 mph9.7 kmh 29.70 in1005.8 mb 0.00 in0.0 mm 0.00 in0.0 mm 0.23 in5.8 mm
09:30 PM 65.8°F18.8°C 51.1°F10.6°C 59% Calm Calm 6.0 mph9.7 kmh 29.70 in1005.8 mb 0.00 in0.0 mm 0.00 in0.0 mm 0.23 in5.8 mm
09:45 PM 65.1°F18.4°C 50.9°F10.5°C 60% 1.0 mph N1.6 kmh N 5.0 mph8.0 kmh 29.71 in1006.1 mb 0.00 in0.0 mm 0.00 in0.0 mm 0.23 in5.8 mm
10:00 PM 64.5°F18.1°C 50.8°F10.4°C 61% Calm Calm 6.0 mph9.7 kmh 29.71 in1006.1 mb 0.00 in0.0 mm 0.00 in0.0 mm 0.23 in5.8 mm
10:15 PM 63.8°F17.7°C 49.7°F9.8°C 60% Calm Calm 11.0 mph17.7 kmh 29.71 in1006.1 mb 0.00 in0.0 mm 0.00 in0.0 mm 0.23 in5.8 mm
10:30 PM 63.1°F17.3°C 48.1°F8.9°C 58% Calm Calm 11.0 mph17.7 kmh 29.70 in1005.8 mb 0.00 in0.0 mm 0.00 in0.0 mm 0.23 in5.8 mm
10:45 PM 62.5°F16.9°C 47.5°F8.6°C 58% 2.0 mph N3.2 kmh N 10.0 mph16.1 kmh 29.70 in1005.8 mb 0.00 in0.0 mm 0.00 in0.0 mm 0.23 in5.8 mm
11:00 PM 62.0°F16.7°C 47.5°F8.6°C 59% 2.0 mph NNE3.2 kmh NNE 10.0 mph16.1 kmh 29.69 in1005.4 mb 0.00 in0.0 mm 0.00 in0.0 mm 0.23 in5.8 mm
11:15 PM 61.5°F16.4°C 47.1°F8.4°C 59% Calm Calm 7.0 mph11.3 kmh 29.70 in1005.8 mb 0.00 in0.0 mm 0.00 in0.0 mm 0.23 in5.8 mm
11:30 PM 61.0°F16.1°C 47.0°F8.3°C 60% 3.0 mph NE4.8 kmh NE 7.0 mph11.3 kmh 29.71 in1006.1 mb 0.00 in0.0 mm 0.00 in0.0 mm 0.23 in5.8 mm
11:45 PM 60.5°F15.8°C 46.6°F8.1°C 60% Calm Calm 7.0 mph11.3 kmh 29.72 in1006.4 mb 0.00 in0.0 mm 0.00 in0.0 mm 0.23 in5.8 mm